Time;durP1;ratioP1;P1;durP2;ratioP2;P2;SDS_P1;SDS_P2;PMS_P1;PMS_P2;Temp;Humidity;BMP_temperature;BMP_pressure;BME280_temperature;BME280_humidity;BME280_pressure;Samples;Min_cycle;Max_cycle;Signal;HPM_P1;HPM_P2
2022/11/12 00:00:30;;;;;;;;;;;;;;;4.81;100.00;101610.34;5022014;28;19990;-81
2022/11/12 00:03:14;;;;;;;;;;;;;;;4.83;100.00;101602.50;5010052;28;19928;-80
2022/11/12 00:05:58;;;;;;;;;;;;;;;4.72;100.00;101596.00;5030021;28;19932;-82
2022/11/12 00:08:42;;;;;;;;;;;;;;;4.69;100.00;101592.78;5008056;28;20390;-80
2022/11/12 00:11:25;;;;;;;;;;;;;;;4.67;100.00;101603.38;5010837;28;20042;-81
2022/11/12 00:14:10;;;;;;;;;;;;;;;4.57;100.00;101598.41;5010130;28;20044;-80
2022/11/12 00:16:53;;;;;;;;;;;;;;;4.47;100.00;101598.97;5010671;28;20036;-80
2022/11/12 00:19:38;;;;;;;;;;;;;;;4.48;100.00;101592.34;5010370;28;19927;-80
2022/11/12 00:22:22;;;;;;;;;;;;;;;4.36;100.00;101597.94;5010311;28;20132;-79
2022/11/12 00:25:06;;;;;;;;;;;;;;;4.34;100.00;101597.50;5013975;28;20342;-82
2022/11/12 00:27:50;;;;;;;;;;;;;;;4.37;100.00;101593.25;5009643;28;20443;-81
2022/11/12 00:30:35;;;;;;;;;;;;;;;4.32;100.00;101591.56;5009796;28;20430;-81
2022/11/12 00:33:20;;;;;;;;;;;;;;;4.27;100.00;101589.09;5000705;28;19991;-80
2022/11/12 00:36:04;;;;;;;;;;;;;;;4.23;100.00;101589.00;5007513;28;19940;-80
2022/11/12 00:38:48;;;;;;;;;;;;;;;4.23;100.00;101588.22;5010064;28;19991;-80
2022/11/12 00:41:32;;;;;;;;;;;;;;;4.16;100.00;101590.78;5010422;28;19928;-81
2022/11/12 00:44:16;;;;;;;;;;;;;;;4.19;100.00;101577.16;5011591;28;19928;-81
2022/11/12 00:46:59;;;;;;;;;;;;;;;4.14;100.00;101573.88;5013728;28;20327;-79
2022/11/12 00:49:43;;;;;;;;;;;;;;;4.09;100.00;101577.66;5013562;28;20274;-79
2022/11/12 00:52:27;;;;;;;;;;;;;;;4.02;100.00;101580.25;5023993;28;20400;-79
2022/11/12 00:55:12;;;;;;;;;;;;;;;3.87;100.00;101577.50;5022855;28;20444;-79
2022/11/12 00:57:57;;;;;;;;;;;;;;;3.86;100.00;101568.47;5032610;28;19932;-79
2022/11/12 01:00:41;;;;;;;;;;;;;;;3.84;100.00;101565.31;5032302;28;19978;-80
2022/11/12 01:03:26;;;;;;;;;;;;;;;3.78;100.00;101571.41;5033458;28;20393;-80
2022/11/12 01:06:12;;;;;;;;;;;;;;;3.74;100.00;101572.13;5032362;28;19963;-82
2022/11/12 01:08:56;;;;;;;;;;;;;;;3.68;100.00;101568.03;5032077;28;19979;-82
2022/11/12 01:11:40;;;;;;;;;;;;;;;3.68;100.00;101562.53;5030886;28;19928;-80
2022/11/12 01:14:24;;;;;;;;;;;;;;;3.60;100.00;101565.47;5034013;28;19927;-81
2022/11/12 01:17:08;;;;;;;;;;;;;;;3.52;100.00;101550.75;5033099;28;19928;-81
2022/11/12 01:19:52;;;;;;;;;;;;;;;3.43;100.00;101554.81;5028153;28;20016;-81
2022/11/12 01:22:36;;;;;;;;;;;;;;;3.33;100.00;101550.63;5033561;28;19932;-81
2022/11/12 01:25:19;;;;;;;;;;;;;;;3.26;100.00;101548.53;5034013;28;19928;-80
2022/11/12 01:28:04;;;;;;;;;;;;;;;3.06;100.00;101543.25;5032174;28;20009;-79
2022/11/12 01:30:47;;;;;;;;;;;;;;;3.03;100.00;101546.69;5033082;28;19928;-80
2022/11/12 01:33:31;;;;;;;;;;;;;;;3.06;100.00;101544.03;5033024;28;19928;-80
2022/11/12 01:36:16;;;;;;;;;;;;;;;3.08;100.00;101532.72;5032507;28;19932;-80
2022/11/12 01:39:00;;;;;;;;;;;;;;;3.04;100.00;101534.56;5032020;28;20355;-80
2022/11/12 01:41:44;;;;;;;;;;;;;;;3.00;100.00;101542.69;5026342;28;19975;-80
2022/11/12 01:44:31;;;;;;;;;;;;;;;2.94;100.00;101535.88;5033185;28;19936;-79
2022/11/12 01:47:21;;;;;;;;;;;;;;;2.99;100.00;101530.16;5032939;28;19928;-79
2022/11/12 01:50:11;;;;;;;;;;;;;;;3.04;100.00;101529.06;5031451;28;19928;-78
2022/11/12 01:52:55;;;;;;;;;;;;;;;3.11;100.00;101526.56;5030863;28;20310;-80
2022/11/12 01:55:39;;;;;;;;;;;;;;;3.23;100.00;101521.00;5017663;28;19975;-80
2022/11/12 01:58:23;;;;;;;;;;;;;;;3.45;100.00;101512.16;5010775;28;19929;-81
2022/11/12 02:03:49;;;;;;;;;;;;;;;3.80;100.00;101514.22;4873775;23;19929;-78
2022/11/12 02:06:33;;;;;;;;;;;;;;;3.87;100.00;101517.13;5027136;28;19944;-79
2022/11/12 02:09:17;;;;;;;;;;;;;;;3.83;100.00;101519.78;5001789;28;20313;-80
2022/11/12 02:12:00;;;;;;;;;;;;;;;3.54;100.00;101512.78;5031347;28;19983;-79
2022/11/12 02:14:44;;;;;;;;;;;;;;;3.36;100.00;101532.72;5031071;28;19927;-80
2022/11/12 02:17:28;;;;;;;;;;;;;;;3.31;100.00;101533.75;5032747;28;20003;-79
2022/11/12 02:20:13;;;;;;;;;;;;;;;3.33;100.00;101517.72;5033063;28;20286;-79
2022/11/12 02:22:57;;;;;;;;;;;;;;;3.45;100.00;101514.09;5031875;28;19967;-83
2022/11/12 02:25:41;;;;;;;;;;;;;;;3.72;100.00;101503.03;5026460;28;20027;-82
2022/11/12 02:28:25;;;;;;;;;;;;;;;4.06;100.00;101492.47;5029491;28;19984;-83
2022/11/12 02:31:09;;;;;;;;;;;;;;;4.07;100.00;101485.84;5023714;28;19947;-83
2022/11/12 02:33:53;;;;;;;;;;;;;;;4.01;100.00;101493.53;5031092;28;20469;-83
2022/11/12 02:36:36;;;;;;;;;;;;;;;3.92;100.00;101494.91;5017250;28;19936;-82
2022/11/12 02:39:20;;;;;;;;;;;;;;;3.80;100.00;101503.25;5017304;28;20024;-79
2022/11/12 02:42:04;;;;;;;;;;;;;;;3.67;100.00;101495.09;5031904;28;20028;-80
2022/11/12 02:44:48;;;;;;;;;;;;;;;3.60;100.00;101499.63;5029547;28;20458;-80
2022/11/12 02:47:32;;;;;;;;;;;;;;;3.59;100.00;101493.34;5030706;28;20457;-79
2022/11/12 02:50:16;;;;;;;;;;;;;;;3.65;100.00;101486.41;5031125;28;20401;-79
2022/11/12 02:53:00;;;;;;;;;;;;;;;3.75;100.00;101490.56;5014177;28;19927;-79
2022/11/12 02:55:44;;;;;;;;;;;;;;;3.98;100.00;101488.75;5029767;28;19931;-79
2022/11/12 02:58:28;;;;;;;;;;;;;;;3.99;100.00;101495.06;5030964;28;20294;-79
2022/11/12 03:01:12;;;;;;;;;;;;;;;4.00;100.00;101497.47;5009951;28;20413;-79
2022/11/12 03:03:56;;;;;;;;;;;;;;;3.86;100.00;101493.56;5010138;28;19931;-79
2022/11/12 03:06:41;;;;;;;;;;;;;;;3.84;100.00;101495.88;5011911;28;19940;-79
2022/11/12 03:09:25;;;;;;;;;;;;;;;3.79;100.00;101494.22;5011360;28;19928;-79
2022/11/12 03:12:08;;;;;;;;;;;;;;;3.78;100.00;101489.84;5012513;28;19929;-79
2022/11/12 03:14:52;;;;;;;;;;;;;;;3.78;100.00;101472.59;5010828;28;19932;-78
2022/11/12 03:17:36;;;;;;;;;;;;;;;3.83;100.00;101470.38;5010630;28;19968;-78
2022/11/12 03:20:20;;;;;;;;;;;;;;;3.85;100.00;101462.56;5010221;28;20401;-79
2022/11/12 03:23:05;;;;;;;;;;;;;;;3.92;100.00;101461.97;5006358;28;20425;-79
2022/11/12 03:25:49;;;;;;;;;;;;;;;3.97;100.00;101458.91;5010563;28;20395;-79
2022/11/12 03:28:33;;;;;;;;;;;;;;;4.00;100.00;101475.50;5009368;28;20020;-78
2022/11/12 03:31:17;;;;;;;;;;;;;;;3.81;100.00;101460.91;5010468;28;19929;-79
2022/11/12 03:34:01;;;;;;;;;;;;;;;3.65;100.00;101458.19;5010825;28;20405;-78
2022/11/12 03:36:45;;;;;;;;;;;;;;;3.62;100.00;101445.97;5010158;28;19932;-79
2022/11/12 03:39:28;;;;;;;;;;;;;;;3.51;100.00;101447.66;4994819;28;19928;-79
2022/11/12 03:42:12;;;;;;;;;;;;;;;3.56;100.00;101444.63;5010834;28;20055;-79
2022/11/12 03:44:56;;;;;;;;;;;;;;;3.94;100.00;101435.72;5008753;28;19978;-78
2022/11/12 03:47:44;;;;;;;;;;;;;;;4.26;100.00;101447.41;5010103;28;19936;-78
2022/11/12 03:50:28;;;;;;;;;;;;;;;3.62;100.00;101448.72;5009185;28;19975;-79
2022/11/12 03:53:14;;;;;;;;;;;;;;;3.24;100.00;101441.09;5009540;28;20286;-79
2022/11/12 03:55:58;;;;;;;;;;;;;;;3.34;100.00;101433.50;5003675;28;20127;-79
2022/11/12 03:58:42;;;;;;;;;;;;;;;3.24;100.00;101432.09;5010679;28;19960;-79
2022/11/12 04:01:26;;;;;;;;;;;;;;;3.17;100.00;101434.66;5008734;28;19975;-79
2022/11/12 04:04:10;;;;;;;;;;;;;;;3.05;100.00;101435.53;5005920;28;20005;-79
2022/11/12 04:09:57;;;;;;;;;;;;;;;3.03;100.00;101431.56;4997167;28;19932;-78
2022/11/12 04:15:44;;;;;;;;;;;;;;;3.00;100.00;101410.31;5011592;28;19967;-79
2022/11/12 04:21:50;;;;;;;;;;;;;;;3.01;100.00;101407.22;5011708;28;20393;-78
2022/11/12 04:27:38;;;;;;;;;;;;;;;3.07;100.00;101419.53;5014051;28;20343;-79
2022/11/12 04:30:22;;;;;;;;;;;;;;;3.13;100.00;101420.84;5015202;28;20012;-78
2022/11/12 04:33:05;;;;;;;;;;;;;;;3.19;100.00;101413.97;5015328;28;19975;-78
2022/11/12 04:35:49;;;;;;;;;;;;;;;3.29;100.00;101412.63;5014650;28;19928;-79
2022/11/12 04:38:33;;;;;;;;;;;;;;;3.45;100.00;101405.19;4998140;28;20490;-79
2022/11/12 04:47:23;;;;;;;;;;;;;;;3.44;100.00;101406.34;5010181;28;19975;-79
2022/11/12 04:50:11;;;;;;;;;;;;;;;3.44;100.00;101403.59;5014129;28;20445;-78
2022/11/12 04:52:55;;;;;;;;;;;;;;;3.47;100.00;101397.41;5011099;28;20397;-79
2022/11/12 04:55:39;;;;;;;;;;;;;;;3.58;100.00;101382.00;5011563;28;19931;-78
2022/11/12 04:58:23;;;;;;;;;;;;;;;3.73;100.00;101381.16;5012050;28;19928;-78
2022/11/12 05:01:07;;;;;;;;;;;;;;;3.79;100.00;101383.63;5007487;28;19999;-79
2022/11/12 05:03:51;;;;;;;;;;;;;;;3.83;100.00;101387.25;5004458;28;20007;-79
2022/11/12 05:06:50;;;;;;;;;;;;;;;3.90;100.00;101379.94;5012547;28;19972;-79
2022/11/12 05:09:34;;;;;;;;;;;;;;;4.02;100.00;101382.56;5011255;28;19933;-78
2022/11/12 05:12:18;;;;;;;;;;;;;;;3.98;100.00;101389.13;5012862;28;19960;-83
2022/11/12 05:15:03;;;;;;;;;;;;;;;3.97;100.00;101387.53;5013388;28;19952;-83
2022/11/12 05:17:47;;;;;;;;;;;;;;;4.00;100.00;101389.59;5025500;28;19928;-83
2022/11/12 05:20:30;;;;;;;;;;;;;;;3.98;100.00;101384.44;5012408;28;19948;-82
2022/11/12 05:23:15;;;;;;;;;;;;;;;3.96;100.00;101388.72;5012834;28;20419;-83
2022/11/12 05:25:58;;;;;;;;;;;;;;;3.99;100.00;101385.25;4998500;28;19976;-83
2022/11/12 05:28:42;;;;;;;;;;;;;;;4.02;100.00;101377.06;5012990;28;19928;-83
2022/11/12 05:31:26;;;;;;;;;;;;;;;4.10;100.00;101389.00;5013239;28;19980;-83
2022/11/12 05:34:10;;;;;;;;;;;;;;;4.16;100.00;101382.09;5011536;28;19929;-83
2022/11/12 05:36:54;;;;;;;;;;;;;;;4.19;100.00;101384.91;5012100;28;19928;-83
2022/11/12 05:39:41;;;;;;;;;;;;;;;4.20;100.00;101389.25;5011772;28;19980;-83
2022/11/12 05:42:25;;;;;;;;;;;;;;;4.25;100.00;101393.63;5013816;28;19929;-83
2022/11/12 05:45:09;;;;;;;;;;;;;;;4.32;100.00;101388.28;5012015;28;19991;-83
2022/11/12 05:47:52;;;;;;;;;;;;;;;4.38;100.00;101395.06;5012912;28;19932;-83
2022/11/12 05:50:36;;;;;;;;;;;;;;;4.37;100.00;101389.97;5012674;28;20424;-83
2022/11/12 05:53:20;;;;;;;;;;;;;;;4.36;100.00;101397.41;5012209;28;19983;-83
2022/11/12 05:56:05;;;;;;;;;;;;;;;4.33;100.00;101400.84;5013372;28;19928;-83
2022/11/12 05:58:48;;;;;;;;;;;;;;;4.32;100.00;101404.78;5012548;28;19928;-83
2022/11/12 06:01:33;;;;;;;;;;;;;;;4.33;100.00;101427.56;5013629;28;19952;-83
2022/11/12 06:04:17;;;;;;;;;;;;;;;4.33;100.00;101416.56;5010243;28;19971;-83
2022/11/12 06:07:02;;;;;;;;;;;;;;;4.31;100.00;101435.34;5011652;28;19948;-82
2022/11/12 06:09:46;;;;;;;;;;;;;;;4.31;100.00;101452.63;5009154;28;19928;-79
2022/11/12 06:12:30;;;;;;;;;;;;;;;4.31;100.00;101446.34;5010519;28;19975;-79
2022/11/12 06:15:15;;;;;;;;;;;;;;;4.32;100.00;101454.22;5011471;28;19928;-79
2022/11/12 06:17:59;;;;;;;;;;;;;;;4.31;100.00;101452.63;4994003;28;20020;-78
2022/11/12 06:20:43;;;;;;;;;;;;;;;4.32;100.00;101459.72;4998824;28;19939;-78
2022/11/12 06:23:27;;;;;;;;;;;;;;;4.26;100.00;101472.13;5006827;28;19948;-79
2022/11/12 06:26:11;;;;;;;;;;;;;;;4.19;100.00;101469.22;5008794;28;20122;-79
2022/11/12 06:28:55;;;;;;;;;;;;;;;4.22;100.00;101476.75;4990850;28;19964;-79
2022/11/12 06:31:39;;;;;;;;;;;;;;;4.34;100.00;101476.63;5005503;28;19929;-79
2022/11/12 06:34:23;;;;;;;;;;;;;;;4.55;100.00;101484.53;5006734;28;19928;-79
2022/11/12 06:37:07;;;;;;;;;;;;;;;4.66;100.00;101480.81;5007899;28;19929;-79
2022/11/12 06:39:51;;;;;;;;;;;;;;;4.78;100.00;101476.34;5007672;28;19928;-79
2022/11/12 06:42:35;;;;;;;;;;;;;;;4.94;100.00;101479.78;5009040;28;20353;-79
2022/11/12 06:45:19;;;;;;;;;;;;;;;5.01;100.00;101480.75;5007699;28;19933;-79
2022/11/12 06:48:03;;;;;;;;;;;;;;;5.32;100.00;101493.47;5009921;28;19932;-81
2022/11/12 06:50:47;;;;;;;;;;;;;;;5.45;100.00;101488.59;5007433;28;20581;-81
2022/11/12 06:53:31;;;;;;;;;;;;;;;5.57;100.00;101480.94;5006673;28;19967;-81
2022/11/12 06:56:15;;;;;;;;;;;;;;;5.73;100.00;101482.75;5001614;28;20437;-81
2022/11/12 06:58:59;;;;;;;;;;;;;;;5.68;100.00;101485.81;5004368;28;19992;-82
2022/11/12 07:01:43;;;;;;;;;;;;;;;5.51;100.00;101492.63;5008351;28;19928;-81
2022/11/12 07:04:27;;;;;;;;;;;;;;;5.17;100.00;101502.66;5008582;28;19928;-80
2022/11/12 07:07:11;;;;;;;;;;;;;;;5.20;100.00;101499.16;5004583;28;20278;-81
2022/11/12 07:09:55;;;;;;;;;;;;;;;5.31;100.00;101494.63;5010418;28;19968;-82
2022/11/12 07:12:39;;;;;;;;;;;;;;;5.51;100.00;101509.94;5007519;28;19928;-81
2022/11/12 07:15:23;;;;;;;;;;;;;;;5.56;100.00;101503.31;5011074;28;19928;-82
2022/11/12 07:18:07;;;;;;;;;;;;;;;5.76;100.00;101495.78;5012024;28;19928;-83
2022/11/12 07:20:51;;;;;;;;;;;;;;;5.82;100.00;101492.38;5012284;28;20401;-83
2022/11/12 07:23:35;;;;;;;;;;;;;;;5.87;100.00;101494.03;5009408;28;19928;-80
2022/11/12 07:26:20;;;;;;;;;;;;;;;5.97;100.00;101504.41;5010073;28;20410;-79
2022/11/12 07:29:06;;;;;;;;;;;;;;;6.11;100.00;101504.63;5009439;28;20461;-78
2022/11/12 07:31:50;;;;;;;;;;;;;;;6.18;100.00;101493.72;5007638;28;19976;-78
2022/11/12 07:34:34;;;;;;;;;;;;;;;6.45;100.00;101500.78;5004080;28;20394;-78
2022/11/12 07:37:18;;;;;;;;;;;;;;;6.62;100.00;101495.88;5010604;28;19933;-78
2022/11/12 07:40:02;;;;;;;;;;;;;;;6.90;100.00;101490.72;5010455;28;19932;-79
2022/11/12 07:42:46;;;;;;;;;;;;;;;7.10;100.00;101514.19;5010130;28;20297;-79
2022/11/12 07:45:30;;;;;;;;;;;;;;;7.38;100.00;101510.91;5009676;28;19932;-82
2022/11/12 07:48:14;;;;;;;;;;;;;;;7.59;100.00;101518.63;5009369;28;19944;-81
2022/11/12 07:51:02;;;;;;;;;;;;;;;7.57;100.00;101518.97;5010952;28;19953;-82
2022/11/12 07:53:47;;;;;;;;;;;;;;;7.67;100.00;101500.94;5012743;28;20059;-82
2022/11/12 07:56:31;;;;;;;;;;;;;;;7.61;100.00;101507.97;5004746;28;19944;-82
2022/11/12 07:59:15;;;;;;;;;;;;;;;7.78;100.00;101513.66;5005096;28;19929;-82
2022/11/12 08:01:59;;;;;;;;;;;;;;;8.01;100.00;101507.91;5009639;28;19968;-79
2022/11/12 08:04:43;;;;;;;;;;;;;;;8.23;100.00;101506.88;5007485;28;19948;-81
2022/11/12 08:07:27;;;;;;;;;;;;;;;8.24;100.00;101507.66;5002308;28;20374;-82
2022/11/12 08:10:11;;;;;;;;;;;;;;;8.57;100.00;101509.47;5009868;28;19928;-81
2022/11/12 08:12:55;;;;;;;;;;;;;;;8.64;100.00;101507.53;5004481;28;19928;-81
2022/11/12 08:15:42;;;;;;;;;;;;;;;8.71;100.00;101504.00;5006375;28;19931;-81
2022/11/12 08:18:26;;;;;;;;;;;;;;;8.71;100.00;101499.25;5007161;28;19932;-81
2022/11/12 08:21:11;;;;;;;;;;;;;;;8.61;100.00;101494.47;5006783;28;19964;-81
2022/11/12 08:23:55;;;;;;;;;;;;;;;8.54;100.00;101515.75;5008260;28;21353;-81
2022/11/12 08:26:39;;;;;;;;;;;;;;;8.52;100.00;101515.38;5007317;28;19936;-80
2022/11/12 08:29:23;;;;;;;;;;;;;;;8.52;100.00;101512.59;5007781;28;20036;-82
2022/11/12 08:32:07;;;;;;;;;;;;;;;8.59;100.00;101507.09;5007183;28;19932;-81
2022/11/12 08:34:51;;;;;;;;;;;;;;;8.88;100.00;101522.66;5005078;28;19992;-81
2022/11/12 08:37:35;;;;;;;;;;;;;;;9.06;100.00;101519.94;5006705;28;20021;-82
2022/11/12 08:40:19;;;;;;;;;;;;;;;9.06;100.00;101523.47;5004439;28;19940;-82
2022/11/12 08:43:04;;;;;;;;;;;;;;;9.11;100.00;101517.56;5003898;28;19937;-82
2022/11/12 08:45:49;;;;;;;;;;;;;;;9.23;100.00;101519.97;5004883;28;20000;-81
2022/11/12 08:48:33;;;;;;;;;;;;;;;9.49;100.00;101523.59;5006030;28;19976;-81
2022/11/12 08:51:17;;;;;;;;;;;;;;;9.59;100.00;101526.38;5006902;28;21653;-82
2022/11/12 08:54:01;;;;;;;;;;;;;;;9.76;100.00;101524.78;5008913;28;19932;-81
2022/11/12 08:56:45;;;;;;;;;;;;;;;9.68;100.00;101523.22;4989394;28;19928;-81
2022/11/12 08:59:29;;;;;;;;;;;;;;;9.81;100.00;101527.19;5009251;28;19929;-81
2022/11/12 09:02:13;;;;;;;;;;;;;;;9.80;100.00;101531.94;5008869;28;20322;-81
2022/11/12 09:04:57;;;;;;;;;;;;;;;9.70;100.00;101535.50;5008991;28;19929;-81
2022/11/12 09:07:41;;;;;;;;;;;;;;;9.67;100.00;101533.50;5007648;28;19971;-81
2022/11/12 09:10:25;;;;;;;;;;;;;;;9.80;100.00;101531.13;5008459;28;19987;-82
2022/11/12 09:13:09;;;;;;;;;;;;;;;10.04;100.00;101530.34;5008674;28;20394;-82
2022/11/12 09:15:53;;;;;;;;;;;;;;;10.28;100.00;101540.63;5003449;28;19948;-82
2022/11/12 09:18:36;;;;;;;;;;;;;;;10.29;100.00;101539.44;5010966;28;20012;-80
2022/11/12 09:21:23;;;;;;;;;;;;;;;10.40;100.00;101542.19;5009634;28;19967;-79
2022/11/12 09:24:07;;;;;;;;;;;;;;;10.41;100.00;101549.34;4999123;28;19949;-79
2022/11/12 09:26:54;;;;;;;;;;;;;;;10.52;100.00;101544.53;5008991;28;19929;-80
2022/11/12 09:29:38;;;;;;;;;;;;;;;10.48;100.00;101554.06;5005993;28;19936;-79
2022/11/12 09:32:21;;;;;;;;;;;;;;;10.71;100.00;101557.19;5007152;28;19968;-80
2022/11/12 09:35:05;;;;;;;;;;;;;;;11.03;100.00;101546.75;5012068;28;20048;-79
2022/11/12 09:37:49;;;;;;;;;;;;;;;11.34;100.00;101555.31;5011443;28;19929;-80
2022/11/12 09:40:53;;;;;;;;;;;;;;;11.53;100.00;101538.13;5008616;28;19928;-80
2022/11/12 09:43:50;;;;;;;;;;;;;;;11.71;100.00;101544.38;5008804;28;20398;-79
2022/11/12 09:46:43;;;;;;;;;;;;;;;11.66;100.00;101551.16;5011053;28;19928;-79
2022/11/12 09:49:28;;;;;;;;;;;;;;;11.65;100.00;101549.56;5004759;28;19968;-79
2022/11/12 09:52:16;;;;;;;;;;;;;;;11.85;100.00;101547.06;5008653;28;20011;-79
2022/11/12 09:55:01;;;;;;;;;;;;;;;11.87;100.00;101550.22;5011867;28;19944;-80
2022/11/12 09:57:45;;;;;;;;;;;;;;;12.05;100.00;101550.84;5009015;28;20319;-80
2022/11/12 10:00:30;;;;;;;;;;;;;;;12.35;100.00;101541.84;5003459;28;19976;-79
2022/11/12 10:03:23;;;;;;;;;;;;;;;12.56;100.00;101541.63;5005316;28;19947;-79
2022/11/12 10:06:11;;;;;;;;;;;;;;;12.53;100.00;101536.09;5005500;28;19932;-81
2022/11/12 10:09:08;;;;;;;;;;;;;;;12.97;100.00;101535.19;5005814;28;19928;-81
2022/11/12 10:18:20;;;;;;;;;;;;;;;13.26;100.00;101532.84;5003291;28;20019;-80
2022/11/12 10:21:10;;;;;;;;;;;;;;;13.35;100.00;101530.31;5006923;28;20294;-79
2022/11/12 10:23:55;;;;;;;;;;;;;;;13.40;100.00;101532.63;5008146;28;20012;-81
2022/11/12 10:26:39;;;;;;;;;;;;;;;13.61;100.00;101532.31;5003651;28;19968;-80
2022/11/12 10:29:27;;;;;;;;;;;;;;;13.78;97.15;101525.69;5006860;28;19932;-80
2022/11/12 10:32:12;;;;;;;;;;;;;;;13.86;98.41;101513.19;5004669;28;20390;-80
2022/11/12 10:34:57;;;;;;;;;;;;;;;13.82;98.80;101509.69;5000467;28;19932;-80
2022/11/12 10:37:44;;;;;;;;;;;;;;;13.49;100.00;101505.81;5005853;28;19929;-80
2022/11/12 10:40:46;;;;;;;;;;;;;;;13.55;100.00;101509.69;5008803;28;19980;-79
2022/11/12 10:43:30;;;;;;;;;;;;;;;13.33;100.00;101510.44;5009156;28;19944;-80
2022/11/12 10:46:18;;;;;;;;;;;;;;;13.06;100.00;101508.38;5009704;28;19970;-79
2022/11/12 10:49:15;;;;;;;;;;;;;;;12.93;100.00;101496.25;5008555;28;19956;-79
2022/11/12 10:51:59;;;;;;;;;;;;;;;12.85;100.00;101503.13;5007540;28;19936;-79
2022/11/12 10:54:43;;;;;;;;;;;;;;;12.88;100.00;101495.91;5009397;28;19984;-80
2022/11/12 10:57:27;;;;;;;;;;;;;;;12.78;100.00;101505.97;5005265;28;20002;-79
2022/11/12 11:00:11;;;;;;;;;;;;;;;12.76;100.00;101505.59;5008919;28;19929;-79
2022/11/12 11:02:55;;;;;;;;;;;;;;;12.83;100.00;101505.50;5004948;28;19975;-79
2022/11/12 11:05:54;;;;;;;;;;;;;;;12.70;100.00;101504.47;5005528;28;19975;-78
2022/11/12 11:08:39;;;;;;;;;;;;;;;12.77;100.00;101507.19;5009699;28;19940;-79
2022/11/12 11:11:27;;;;;;;;;;;;;;;12.97;100.00;101510.91;5009353;28;19937;-79
2022/11/12 11:14:20;;;;;;;;;;;;;;;12.95;100.00;101512.53;5003767;28;19929;-78
2022/11/12 11:17:07;;;;;;;;;;;;;;;13.02;100.00;101516.00;5011863;28;19960;-79
2022/11/12 11:19:51;;;;;;;;;;;;;;;12.95;100.00;101518.88;5010950;28;19967;-78
2022/11/12 11:22:38;;;;;;;;;;;;;;;12.97;100.00;101515.69;5009417;28;20358;-79
2022/11/12 11:25:26;;;;;;;;;;;;;;;13.03;100.00;101520.38;5005937;28;19949;-79
2022/11/12 11:28:13;;;;;;;;;;;;;;;13.11;100.00;101509.16;5012276;28;19929;-79
2022/11/12 11:31:09;;;;;;;;;;;;;;;13.08;100.00;101517.13;5010321;28;20024;-79
2022/11/12 11:34:02;;;;;;;;;;;;;;;13.16;100.00;101517.06;5008287;28;19936;-80
2022/11/12 11:36:58;;;;;;;;;;;;;;;13.19;100.00;101522.56;5011745;28;19968;-80
2022/11/12 11:39:54;;;;;;;;;;;;;;;13.30;100.00;101522.44;5009632;28;20414;-80
2022/11/12 11:42:51;;;;;;;;;;;;;;;13.40;100.00;101522.28;5010476;28;19990;-80
2022/11/12 11:45:42;;;;;;;;;;;;;;;13.19;100.00;101511.44;5010286;28;19975;-80
2022/11/12 11:48:36;;;;;;;;;;;;;;;13.14;100.00;101503.56;5010392;28;19928;-80
2022/11/12 11:51:32;;;;;;;;;;;;;;;13.22;100.00;101509.81;5011689;28;19952;-80
2022/11/12 11:54:16;;;;;;;;;;;;;;;13.09;100.00;101507.56;5010455;28;20279;-80
2022/11/12 11:57:01;;;;;;;;;;;;;;;12.97;100.00;101504.56;5009580;28;19940;-80
2022/11/12 11:59:44;;;;;;;;;;;;;;;13.00;100.00;101498.94;5009039;28;19951;-79
2022/11/12 12:02:32;;;;;;;;;;;;;;;12.95;100.00;101510.53;5009415;28;19932;-80
2022/11/12 12:05:18;;;;;;;;;;;;;;;12.91;100.00;101507.00;5009795;28;20322;-80
2022/11/12 12:08:04;;;;;;;;;;;;;;;12.87;100.00;101508.25;5009712;28;20015;-80
2022/11/12 12:10:54;;;;;;;;;;;;;;;12.78;100.00;101497.63;5010209;28;20445;-80
2022/11/12 12:13:57;;;;;;;;;;;;;;;12.78;100.00;101497.63;5011624;28;19972;-80
2022/11/12 12:16:44;;;;;;;;;;;;;;;12.72;100.00;101499.28;5011039;28;19997;-80
2022/11/12 12:19:45;;;;;;;;;;;;;;;12.63;100.00;101496.22;5010958;28;19929;-80
2022/11/12 12:22:33;;;;;;;;;;;;;;;12.59;100.00;101473.19;5010587;28;19933;-80
2022/11/12 12:25:21;;;;;;;;;;;;;;;12.60;100.00;101483.13;5011007;28;20391;-80
2022/11/12 12:28:12;;;;;;;;;;;;;;;12.57;100.00;101486.75;5011626;28;19976;-80
2022/11/12 12:30:57;;;;;;;;;;;;;;;12.50;100.00;101484.03;5011003;28;19975;-80
2022/11/12 12:33:50;;;;;;;;;;;;;;;12.43;100.00;101481.34;5010134;28;19929;-80
2022/11/12 12:36:38;;;;;;;;;;;;;;;12.44;100.00;101480.16;5011515;28;20060;-80
2022/11/12 12:39:22;;;;;;;;;;;;;;;12.25;100.00;101483.53;5010024;28;20168;-80
2022/11/12 12:42:17;;;;;;;;;;;;;;;12.08;100.00;101483.31;5011822;28;20323;-79
2022/11/12 12:45:04;;;;;;;;;;;;;;;11.90;100.00;101482.66;5015351;28;19967;-79
2022/11/12 12:47:48;;;;;;;;;;;;;;;11.99;100.00;101487.75;5014117;28;20436;-80
2022/11/12 12:50:32;;;;;;;;;;;;;;;12.01;100.00;101488.91;5014765;28;19929;-80
2022/11/12 12:53:16;;;;;;;;;;;;;;;11.87;100.00;101483.50;5014058;28;20195;-80
2022/11/12 12:56:01;;;;;;;;;;;;;;;11.79;100.00;101484.75;5000091;28;20386;-80
2022/11/12 12:58:46;;;;;;;;;;;;;;;11.84;100.00;101473.22;5013786;28;19928;-80
2022/11/12 13:01:30;;;;;;;;;;;;;;;11.85;100.00;101471.22;5014389;28;19944;-80
2022/11/12 13:04:14;;;;;;;;;;;;;;;11.90;100.00;101477.13;5013555;28;19987;-80
2022/11/12 13:06:58;;;;;;;;;;;;;;;11.87;100.00;101477.16;5015142;28;19975;-80
2022/11/12 13:09:43;;;;;;;;;;;;;;;11.83;100.00;101477.19;5013803;28;20003;-80
2022/11/12 13:12:46;;;;;;;;;;;;;;;11.86;100.00;101476.34;5014393;28;20298;-80
2022/11/12 13:15:40;;;;;;;;;;;;;;;11.90;100.00;101466.00;5014229;28;19975;-80
2022/11/12 13:18:50;;;;;;;;;;;;;;;11.86;100.00;101470.78;4999521;28;19963;-80
2022/11/12 13:21:34;;;;;;;;;;;;;;;11.98;100.00;101481.41;5014140;28;20333;-80
2022/11/12 13:24:21;;;;;;;;;;;;;;;11.98;100.00;101475.06;5014471;28;20306;-79
2022/11/12 13:27:06;;;;;;;;;;;;;;;11.89;100.00;101471.97;5014945;28;19928;-81
2022/11/12 13:29:50;;;;;;;;;;;;;;;11.67;100.00;101474.13;5012835;28;19928;-80
2022/11/12 13:32:46;;;;;;;;;;;;;;;11.70;100.00;101478.84;5013088;28;19929;-80
2022/11/12 13:35:33;;;;;;;;;;;;;;;11.63;100.00;101484.47;5013920;28;19948;-80
2022/11/12 13:38:18;;;;;;;;;;;;;;;11.65;100.00;101485.63;5013086;28;19928;-80
2022/11/12 13:41:05;;;;;;;;;;;;;;;11.53;100.00;101482.56;5014028;28;19984;-80
2022/11/12 13:43:50;;;;;;;;;;;;;;;11.47;100.00;101475.88;5014543;28;20025;-80
2022/11/12 13:46:33;;;;;;;;;;;;;;;11.45;100.00;101465.16;5013749;28;19928;-80
2022/11/12 13:49:17;;;;;;;;;;;;;;;11.52;100.00;101472.66;5014258;28;19929;-79
2022/11/12 13:52:03;;;;;;;;;;;;;;;11.55;100.00;101477.38;5014024;28;20442;-80
2022/11/12 13:54:48;;;;;;;;;;;;;;;11.53;100.00;101474.22;5011658;28;19976;-80
2022/11/12 13:57:32;;;;;;;;;;;;;;;11.52;100.00;101464.31;5012788;28;20176;-80
2022/11/12 14:00:28;;;;;;;;;;;;;;;11.49;100.00;101462.34;5012258;28;20338;-80
2022/11/12 14:03:14;;;;;;;;;;;;;;;11.50;100.00;101452.81;5013436;28;19972;-80
2022/11/12 14:06:01;;;;;;;;;;;;;;;11.48;100.00;101449.66;4999001;28;20187;-80
2022/11/12 14:08:51;;;;;;;;;;;;;;;11.38;100.00;101451.31;4999244;28;19929;-80
2022/11/12 14:11:56;;;;;;;;;;;;;;;11.45;100.00;101447.69;4998320;28;19928;-80
2022/11/12 14:14:44;;;;;;;;;;;;;;;11.49;100.00;101445.66;5011990;28;19933;-80
2022/11/12 14:17:37;;;;;;;;;;;;;;;11.24;100.00;101454.97;5013717;28;19975;-80
2022/11/12 14:20:31;;;;;;;;;;;;;;;11.29;100.00;101458.53;5013192;28;19929;-80
2022/11/12 14:23:19;;;;;;;;;;;;;;;11.22;100.00;101454.59;5012541;28;19928;-80
2022/11/12 14:26:03;;;;;;;;;;;;;;;11.34;100.00;101452.53;5012216;28;19935;-80
2022/11/12 14:28:50;;;;;;;;;;;;;;;11.32;100.00;101447.41;5013458;28;19932;-80
2022/11/12 14:31:34;;;;;;;;;;;;;;;11.19;100.00;101449.88;5011986;28;19933;-80
2022/11/12 14:34:25;;;;;;;;;;;;;;;11.26;100.00;101453.78;5013254;28;19956;-80